Dauntless Aviation
Airports Europe Germany
EDAJ

Gera-Leumnitz Airfield

Gera, GERMANY

Airport Info
Suggest Updated Information for this Airport

Location

Latitude / Longitude: 50°52'54"N / 12°8'8"E
  50°52.902'N / 12°8.148'E
  50.8817 / 12.1358
Satellite photo at:
Airport distance calculator
From:
Weather Reports

METAR

EDAC
15.1nm NE
EDAC 271550Z 19010KT CAVOK 07/// Q1009
EDDP
33.3nm N
EDDP 271550Z 19010KT 9999 BKN031 08/04 Q1008 NOSIG
EDQM
36.6nm S
EDQM 271550Z 20009KT 9999 SCT040 BKN068 04/01 Q1009

TAF

EDAC
15.1nm NE
TAF EDAC 271400Z 2715/2724 20012KT 9999 FEW025 BECMG 2715/2717 18007KT BECMG 2719/2721 24011KT TEMPO 2721/2724 OVC014
EDDP
33.3nm N
TAF EDDP 271100Z 2712/2812 19011G21KT 9999 SCT030 BECMG 2809/2812 24020G30KT PROB30 TEMPO 2809/2812 24025G35KT 3500 SHRA BKN015CB
EDQM
36.6nm S
TAF EDQM 271400Z 2715/2724 21010KT 9999 SCT010 BKN040 TEMPO 2715/2718 BKN009 TEMPO 2718/2724 3500 RA BKN008
Safelog

 

Dauntless Aviation

© 2007-2020 Dauntless Aviation, all rights reserved
Information provided via PilotNav comes from a variety of official and unofficial data sources. As errors are possible, do not use PilotNav for primary flight planning purposes. Verify any information that you receive via PilotNav with current and canonical charts and other official documents. The material in this database is subject to database copyrights held by Dauntless Aviation and may not be copied without the express permission of Dauntless Aviation - licenses for use of part of all of this data are available for purchase; enquire via the Dauntless Aviation helpdesk. A number of mechanisms and markers exist in the database to protect against and identify infringement / copyright. Automated queries against this website are stictly prohibited, and all activity is logged and analyzed.